Skip Navigation LinksHome page > Weather > Current weather Skip Navigation Links

Current Weather

Ronald Reagan Washington National, Washington

For information only: do not use for flight planning or navigation.
Latest weather
Observation time Monday, December 18, 2017 6:52 AM EST
Local time Monday, December 18, 2017 7:29 AM EST
Flight conditions Visual Meteorological Conditions
Winds
Wind direction Northeast (50°)
Wind speed 5 mph
Visibility 10 mi.
Sky condition
Ceiling 4,600 ft. broken clouds
Cloud layer broken clouds 4,600 ft.
Temperature 39°F
Dewpoint 34°F
Altimeter 30.14 in.Hg
Pressure change last 3 hours-0.02 in.Hg
Pressure rising more quickly
Derived measurements
Relative humidity 82%
Wind chill 36°F
Density altitude -1482 ft.
Sea-level pressure 30.14 in.Hg
Climate data
Temperature minimum, last 6 hours 39°F
Temperature maximum, last 6 hours 44°F
Remarks
Automated weather observing station with precipitation discriminator.
METAR KDCA 181152Z 05004KT 10SM BKN046 04/01 A3014 RMK AO2 SLP205 T00390011 10067 20039 53006

Settings

Location code

InnerDrive.Weather 4.0.6144.1 Release CLR 4.0.30319.36366
Copyright ©2015 Inner Drive Technology. All rights reserved. Portions Copyright ©1986-2015 David Braverman.

Find weather

Site navigation


Skip Navigation Links

Place info

Page info

PayPal - The safer, easier way to pay online!

Return home.

Copyright ©2017 Inner Drive Technology. Purveyors of fine, hand-crafted computer software. Page printed 2017-12-18T12:29:52 UTC.